THA112 ROAH-RCTP
Flight info
| Callsign | THA112 |
|---|---|
| Flight time | 1h 10m |
| Altitude | 32000 |
| Route | GANJU Y576 LILRA Y573 SEDKU R595 GRACE GRACE1A |
| Aircraft | A320/M-SDE3FGHIRWY/LB1 |
Departure
| Time | 2026-05-05 14:38 |
|---|---|
| Airport | Naha International Airport (ROAH) |
Arrival
| Time | 2026-05-05 15:48 |
|---|---|
| Airport | Taiwan Taoyuan International Airport (RCTP) |
| Time | Latitude | Longitude | Altitude | Speed | Heading |
|---|---|---|---|---|---|
| 2026-05-05 14:28 | 26.19295 | 127.64948 | 21 ft | 0 kts | 356° |
| 2026-05-05 14:34 | 26.19296 | 127.64948 | 23 ft | 1 kts | 356° |
| 2026-05-05 14:35 | 26.19296 | 127.64936 | 21 ft | 5 kts | 268° |
| 2026-05-05 14:35 | 26.19263 | 127.64881 | 19 ft | 11 kts | 225° |
| 2026-05-05 14:35 | 26.19190 | 127.64826 | 18 ft | 14 kts | 208° |
| 2026-05-05 14:35 | 26.19124 | 127.64815 | 17 ft | 16 kts | 175° |
| 2026-05-05 14:36 | 26.19033 | 127.64816 | 17 ft | 9 kts | 180° |
| 2026-05-05 14:36 | 26.18960 | 127.64823 | 17 ft | 13 kts | 176° |
| 2026-05-05 14:36 | 26.18814 | 127.64810 | 18 ft | 23 kts | 219° |
| 2026-05-05 14:36 | 26.18807 | 127.64656 | 19 ft | 19 kts | 295° |
| 2026-05-05 14:37 | 26.18891 | 127.64620 | 18 ft | 6 kts | 358° |
| 2026-05-05 14:37 | 26.19048 | 127.64611 | 18 ft | 64 kts | 358° |
| 2026-05-05 14:37 | 26.19763 | 127.64579 | 15 ft | 138 kts | 357° |
| 2026-05-05 14:37 | 26.20888 | 127.64532 | 251 ft | 172 kts | 360° |
| 2026-05-05 14:38 | 26.22067 | 127.64494 | 1091 ft | 169 kts | 359° |
| 2026-05-05 14:38 | 26.23270 | 127.64428 | 1479 ft | 181 kts | 360° |
| 2026-05-05 14:38 | 26.24616 | 127.64370 | 1744 ft | 206 kts | 360° |
| 2026-05-05 14:38 | 26.26107 | 127.64100 | 2057 ft | 231 kts | 342° |
| 2026-05-05 14:39 | 26.27641 | 127.63299 | 2423 ft | 256 kts | 333° |
| 2026-05-05 14:39 | 26.29206 | 127.62264 | 3121 ft | 265 kts | 332° |
| 2026-05-05 14:39 | 26.30763 | 127.61184 | 3927 ft | 269 kts | 332° |
| 2026-05-05 14:39 | 26.32370 | 127.60084 | 4705 ft | 274 kts | 330° |
| 2026-05-05 14:40 | 26.34028 | 127.58979 | 5484 ft | 280 kts | 330° |
| 2026-05-05 14:40 | 26.35722 | 127.57872 | 6245 ft | 285 kts | 330° |
| 2026-05-05 14:40 | 26.37452 | 127.56758 | 6992 ft | 290 kts | 329° |
| 2026-05-05 14:40 | 26.39175 | 127.55563 | 7748 ft | 293 kts | 318° |
| 2026-05-05 14:41 | 26.40447 | 127.53811 | 8486 ft | 292 kts | 293° |
| 2026-05-05 14:41 | 26.40963 | 127.51657 | 9211 ft | 288 kts | 269° |
| 2026-05-05 14:41 | 26.40669 | 127.49478 | 9948 ft | 284 kts | 246° |
| 2026-05-05 14:41 | 26.39656 | 127.47607 | 10610 ft | 287 kts | 230° |
| 2026-05-05 14:42 | 26.38320 | 127.45843 | 10756 ft | 309 kts | 228° |
| 2026-05-05 14:42 | 26.36862 | 127.43980 | 10885 ft | 329 kts | 228° |
| 2026-05-05 14:42 | 26.35311 | 127.42020 | 11160 ft | 342 kts | 228° |
| 2026-05-05 14:42 | 26.33706 | 127.40037 | 11725 ft | 346 kts | 226° |
| 2026-05-05 14:43 | 26.32023 | 127.38119 | 12388 ft | 347 kts | 225° |
| 2026-05-05 14:43 | 26.30292 | 127.36238 | 13058 ft | 348 kts | 224° |
| 2026-05-05 14:43 | 26.28542 | 127.34374 | 13681 ft | 349 kts | 224° |
| 2026-05-05 14:43 | 26.26781 | 127.32501 | 14276 ft | 351 kts | 224° |
| 2026-05-05 14:44 | 26.25018 | 127.30610 | 14842 ft | 353 kts | 224° |
| 2026-05-05 14:44 | 26.23255 | 127.28701 | 15417 ft | 354 kts | 225° |
| 2026-05-05 14:44 | 26.21486 | 127.26778 | 15947 ft | 356 kts | 225° |
| 2026-05-05 14:44 | 26.19708 | 127.24840 | 16473 ft | 358 kts | 225° |
| 2026-05-05 14:45 | 26.17924 | 127.22890 | 16966 ft | 360 kts | 225° |
| 2026-05-05 14:45 | 26.16134 | 127.20931 | 17483 ft | 362 kts | 225° |
| 2026-05-05 14:45 | 26.14359 | 127.18986 | 17978 ft | 364 kts | 225° |
| 2026-05-05 14:45 | 26.12617 | 127.16937 | 18470 ft | 366 kts | 232° |
| 2026-05-05 14:46 | 26.11167 | 127.14554 | 18918 ft | 369 kts | 237° |
| 2026-05-05 14:46 | 26.09816 | 127.12157 | 19357 ft | 372 kts | 237° |
| 2026-05-05 14:46 | 26.08436 | 127.09714 | 19802 ft | 374 kts | 237° |
| 2026-05-05 14:46 | 26.07043 | 127.07255 | 20241 ft | 377 kts | 237° |
| 2026-05-05 14:47 | 26.05640 | 127.04777 | 20631 ft | 380 kts | 238° |
| 2026-05-05 14:47 | 26.04227 | 127.02283 | 21037 ft | 382 kts | 238° |
| 2026-05-05 14:47 | 26.02806 | 126.99772 | 21407 ft | 385 kts | 238° |
| 2026-05-05 14:47 | 26.01374 | 126.97240 | 21790 ft | 388 kts | 238° |
| 2026-05-05 14:48 | 25.99934 | 126.94696 | 22138 ft | 391 kts | 238° |
| 2026-05-05 14:48 | 25.98480 | 126.92135 | 22455 ft | 394 kts | 238° |
| 2026-05-05 14:48 | 25.97009 | 126.89553 | 22740 ft | 397 kts | 238° |
| 2026-05-05 14:48 | 25.95527 | 126.86950 | 23061 ft | 399 kts | 238° |
| 2026-05-05 14:49 | 25.94044 | 126.84335 | 23382 ft | 401 kts | 238° |
| 2026-05-05 14:49 | 25.92554 | 126.81705 | 23689 ft | 403 kts | 238° |
| 2026-05-05 14:49 | 25.91055 | 126.79063 | 23979 ft | 405 kts | 238° |
| 2026-05-05 14:49 | 25.89547 | 126.76412 | 24248 ft | 408 kts | 238° |
| 2026-05-05 14:50 | 25.88026 | 126.73741 | 24524 ft | 410 kts | 238° |
| 2026-05-05 14:50 | 25.86510 | 126.71052 | 24816 ft | 412 kts | 239° |
| 2026-05-05 14:50 | 25.85047 | 126.68307 | 25109 ft | 414 kts | 240° |
| 2026-05-05 14:50 | 25.83627 | 126.65522 | 25393 ft | 415 kts | 241° |
| 2026-05-05 14:51 | 25.82226 | 126.62718 | 25687 ft | 417 kts | 241° |
| 2026-05-05 14:51 | 25.80837 | 126.59934 | 25966 ft | 419 kts | 241° |
| 2026-05-05 14:51 | 25.79417 | 126.57109 | 26258 ft | 420 kts | 241° |
| 2026-05-05 14:51 | 25.77983 | 126.54292 | 26636 ft | 419 kts | 241° |
| 2026-05-05 14:52 | 25.76541 | 126.51490 | 27007 ft | 418 kts | 240° |
| 2026-05-05 14:52 | 25.75095 | 126.48699 | 27404 ft | 417 kts | 241° |
| 2026-05-05 14:52 | 25.73651 | 126.45914 | 27809 ft | 416 kts | 241° |
| 2026-05-05 14:52 | 25.72214 | 126.43136 | 28215 ft | 415 kts | 241° |
| 2026-05-05 14:53 | 25.70784 | 126.40365 | 28624 ft | 413 kts | 241° |
| 2026-05-05 14:53 | 25.69361 | 126.37603 | 29035 ft | 412 kts | 241° |
| 2026-05-05 14:53 | 25.67940 | 126.34845 | 29430 ft | 412 kts | 241° |
| 2026-05-05 14:53 | 25.66521 | 126.32095 | 29827 ft | 411 kts | 242° |
| 2026-05-05 14:54 | 25.65106 | 126.29354 | 30238 ft | 409 kts | 242° |
| 2026-05-05 14:54 | 25.63693 | 126.26620 | 30688 ft | 408 kts | 242° |
| 2026-05-05 14:54 | 25.62283 | 126.23901 | 31166 ft | 405 kts | 242° |
| 2026-05-05 14:54 | 25.60892 | 126.21215 | 31687 ft | 401 kts | 242° |
| 2026-05-05 14:55 | 25.59509 | 126.18546 | 31973 ft | 397 kts | 242° |
| 2026-05-05 14:55 | 25.58136 | 126.15894 | 32039 ft | 400 kts | 242° |
| 2026-05-05 14:55 | 25.55323 | 126.10466 | 32043 ft | 410 kts | 242° |
| 2026-05-05 14:56 | 25.52511 | 126.05055 | 32033 ft | 411 kts | 242° |
| 2026-05-05 14:56 | 25.49659 | 125.99577 | 32033 ft | 411 kts | 242° |
| 2026-05-05 14:57 | 25.46805 | 125.94098 | 32035 ft | 410 kts | 242° |
| 2026-05-05 14:57 | 25.43957 | 125.88631 | 32031 ft | 409 kts | 242° |
| 2026-05-05 14:58 | 25.41125 | 125.83212 | 32026 ft | 409 kts | 242° |
| 2026-05-05 14:58 | 25.38284 | 125.77759 | 32021 ft | 409 kts | 242° |
| 2026-05-05 14:59 | 25.35434 | 125.72317 | 32020 ft | 409 kts | 241° |
| 2026-05-05 14:59 | 25.32561 | 125.66885 | 32018 ft | 409 kts | 241° |
| 2026-05-05 15:00 | 25.30133 | 125.62344 | 32016 ft | 409 kts | 241° |
| 2026-05-05 15:00 | 25.26765 | 125.56049 | 32015 ft | 410 kts | 241° |
| 2026-05-05 15:01 | 25.23872 | 125.50631 | 32010 ft | 410 kts | 241° |
| 2026-05-05 15:01 | 25.20973 | 125.45210 | 32010 ft | 410 kts | 240° |
| 2026-05-05 15:02 | 25.18072 | 125.39790 | 32010 ft | 410 kts | 240° |
| 2026-05-05 15:02 | 25.15172 | 125.34365 | 32015 ft | 410 kts | 240° |
| 2026-05-05 15:03 | 25.12264 | 125.28948 | 32020 ft | 410 kts | 240° |
| 2026-05-05 15:03 | 25.09207 | 125.23631 | 32019 ft | 411 kts | 235° |
| 2026-05-05 15:04 | 25.05778 | 125.18581 | 32017 ft | 411 kts | 235° |
| 2026-05-05 15:04 | 25.02347 | 125.13540 | 32014 ft | 410 kts | 235° |
| 2026-05-05 15:05 | 24.97137 | 125.06045 | 32010 ft | 411 kts | 233° |
| 2026-05-05 15:06 | 24.93494 | 125.01192 | 32006 ft | 411 kts | 232° |
| 2026-05-05 15:06 | 24.89861 | 124.96380 | 32003 ft | 410 kts | 232° |
| 2026-05-05 15:07 | 24.86266 | 124.91499 | 31999 ft | 410 kts | 237° |
| 2026-05-05 15:07 | 24.83981 | 124.85816 | 31999 ft | 409 kts | 257° |
| 2026-05-05 15:08 | 24.83888 | 124.79542 | 31997 ft | 415 kts | 274° |
| 2026-05-05 15:08 | 24.84662 | 124.73249 | 31996 ft | 415 kts | 274° |
| 2026-05-05 15:09 | 24.85415 | 124.66954 | 31994 ft | 415 kts | 274° |
| 2026-05-05 15:09 | 24.86164 | 124.60656 | 31992 ft | 415 kts | 274° |
| 2026-05-05 15:10 | 24.86902 | 124.54504 | 31997 ft | 416 kts | 274° |
| 2026-05-05 15:10 | 24.87660 | 124.48192 | 31999 ft | 416 kts | 274° |
| 2026-05-05 15:11 | 24.88415 | 124.41855 | 32002 ft | 416 kts | 274° |
| 2026-05-05 15:11 | 24.89161 | 124.35532 | 32004 ft | 416 kts | 273° |
| 2026-05-05 15:12 | 24.89915 | 124.29213 | 32009 ft | 416 kts | 273° |
| 2026-05-05 15:12 | 24.90665 | 124.22889 | 32011 ft | 416 kts | 273° |
| 2026-05-05 15:13 | 24.91400 | 124.16617 | 32012 ft | 416 kts | 273° |
| 2026-05-05 15:13 | 24.92133 | 124.10297 | 31994 ft | 417 kts | 273° |
| 2026-05-05 15:14 | 24.92868 | 124.03957 | 31982 ft | 418 kts | 273° |
| 2026-05-05 15:14 | 24.93603 | 123.97603 | 31984 ft | 418 kts | 273° |
| 2026-05-05 15:15 | 24.94289 | 123.91236 | 31985 ft | 418 kts | 272° |
| 2026-05-05 15:15 | 24.94950 | 123.84868 | 31984 ft | 419 kts | 272° |
| 2026-05-05 15:16 | 24.95617 | 123.78496 | 31993 ft | 419 kts | 272° |
| 2026-05-05 15:16 | 24.96283 | 123.72124 | 31989 ft | 418 kts | 272° |
| 2026-05-05 15:17 | 24.96948 | 123.65747 | 31990 ft | 419 kts | 272° |
| 2026-05-05 15:17 | 24.97628 | 123.59373 | 32006 ft | 418 kts | 272° |
| 2026-05-05 15:18 | 24.98284 | 123.53020 | 31988 ft | 416 kts | 272° |
| 2026-05-05 15:18 | 24.98929 | 123.46680 | 31981 ft | 417 kts | 272° |
| 2026-05-05 15:19 | 24.99584 | 123.40332 | 31981 ft | 417 kts | 272° |
| 2026-05-05 15:19 | 25.00236 | 123.34026 | 31984 ft | 417 kts | 272° |
| 2026-05-05 15:20 | 25.00885 | 123.27668 | 31986 ft | 417 kts | 272° |
| 2026-05-05 15:20 | 25.01526 | 123.21297 | 31975 ft | 419 kts | 272° |
| 2026-05-05 15:21 | 25.02175 | 123.14917 | 31976 ft | 418 kts | 272° |
| 2026-05-05 15:21 | 25.02822 | 123.08547 | 31984 ft | 418 kts | 272° |
| 2026-05-05 15:22 | 25.03456 | 123.02187 | 31987 ft | 417 kts | 272° |
| 2026-05-05 15:22 | 25.04084 | 122.95841 | 31992 ft | 416 kts | 272° |
| 2026-05-05 15:23 | 25.04718 | 122.89492 | 31993 ft | 416 kts | 272° |
| 2026-05-05 15:23 | 25.05350 | 122.83150 | 31994 ft | 416 kts | 272° |
| 2026-05-05 15:24 | 25.05976 | 122.76800 | 31997 ft | 416 kts | 272° |
| 2026-05-05 15:24 | 25.06597 | 122.70491 | 31999 ft | 417 kts | 272° |
| 2026-05-05 15:25 | 25.07218 | 122.64142 | 32002 ft | 416 kts | 272° |
| 2026-05-05 15:25 | 25.07831 | 122.57790 | 32008 ft | 416 kts | 272° |
| 2026-05-05 15:26 | 25.08443 | 122.51444 | 32009 ft | 416 kts | 272° |
| 2026-05-05 15:26 | 25.09059 | 122.45098 | 32013 ft | 416 kts | 272° |
| 2026-05-05 15:27 | 25.09668 | 122.38749 | 32019 ft | 416 kts | 272° |
| 2026-05-05 15:27 | 25.10287 | 122.32410 | 32022 ft | 417 kts | 273° |
| 2026-05-05 15:28 | 25.12079 | 122.26259 | 32023 ft | 431 kts | 292° |
| 2026-05-05 15:28 | 25.15140 | 122.20531 | 32022 ft | 433 kts | 294° |
| 2026-05-05 15:29 | 25.18190 | 122.14843 | 32025 ft | 434 kts | 294° |
| 2026-05-05 15:29 | 25.21264 | 122.09107 | 31816 ft | 435 kts | 294° |
| 2026-05-05 15:29 | 25.22803 | 122.06237 | 31569 ft | 435 kts | 294° |
| 2026-05-05 15:30 | 25.24343 | 122.03366 | 31318 ft | 435 kts | 294° |
| 2026-05-05 15:30 | 25.25383 | 122.01422 | 31149 ft | 435 kts | 294° |
| 2026-05-05 15:30 | 25.27422 | 121.97602 | 30819 ft | 436 kts | 294° |
| 2026-05-05 15:30 | 25.28962 | 121.94711 | 30568 ft | 436 kts | 294° |
| 2026-05-05 15:31 | 25.30001 | 121.92757 | 30401 ft | 437 kts | 294° |
| 2026-05-05 15:31 | 25.31543 | 121.89861 | 30146 ft | 437 kts | 294° |
| 2026-05-05 15:31 | 25.33067 | 121.86997 | 29898 ft | 439 kts | 294° |
| 2026-05-05 15:31 | 25.34616 | 121.84084 | 29648 ft | 440 kts | 294° |
| 2026-05-05 15:32 | 25.36167 | 121.81167 | 29398 ft | 441 kts | 294° |
| 2026-05-05 15:32 | 25.37722 | 121.78245 | 29149 ft | 442 kts | 295° |
| 2026-05-05 15:32 | 25.39281 | 121.75315 | 28899 ft | 442 kts | 295° |
| 2026-05-05 15:32 | 25.40844 | 121.72376 | 28647 ft | 443 kts | 295° |
| 2026-05-05 15:33 | 25.42403 | 121.69441 | 27780 ft | 445 kts | 295° |
| 2026-05-05 15:33 | 25.43978 | 121.66468 | 26602 ft | 451 kts | 294° |
| 2026-05-05 15:33 | 25.45287 | 121.63342 | 25586 ft | 444 kts | 282° |
| 2026-05-05 15:33 | 25.45861 | 121.60061 | 25006 ft | 428 kts | 270° |
| 2026-05-05 15:34 | 25.45750 | 121.56819 | 24237 ft | 418 kts | 258° |
| 2026-05-05 15:34 | 25.44958 | 121.53757 | 23451 ft | 412 kts | 246° |
| 2026-05-05 15:34 | 25.43549 | 121.51016 | 22674 ft | 409 kts | 234° |
| 2026-05-05 15:34 | 25.41729 | 121.48607 | 21916 ft | 406 kts | 230° |
| 2026-05-05 15:35 | 25.39886 | 121.46249 | 21149 ft | 403 kts | 230° |
| 2026-05-05 15:35 | 25.38083 | 121.43945 | 20443 ft | 399 kts | 230° |
| 2026-05-05 15:35 | 25.36275 | 121.41638 | 19751 ft | 394 kts | 230° |
| 2026-05-05 15:35 | 25.34490 | 121.39361 | 19060 ft | 390 kts | 230° |
| 2026-05-05 15:36 | 25.32725 | 121.37109 | 18446 ft | 385 kts | 230° |
| 2026-05-05 15:36 | 25.30983 | 121.34890 | 17826 ft | 380 kts | 229° |
| 2026-05-05 15:36 | 25.29260 | 121.32694 | 17225 ft | 376 kts | 230° |
| 2026-05-05 15:36 | 25.27556 | 121.30522 | 16670 ft | 372 kts | 230° |
| 2026-05-05 15:37 | 25.25872 | 121.28373 | 16109 ft | 367 kts | 230° |
| 2026-05-05 15:37 | 25.24210 | 121.26252 | 15536 ft | 363 kts | 230° |
| 2026-05-05 15:37 | 25.22570 | 121.24160 | 14987 ft | 359 kts | 230° |
| 2026-05-05 15:37 | 25.20941 | 121.22088 | 14399 ft | 355 kts | 230° |
| 2026-05-05 15:38 | 25.19331 | 121.20045 | 13816 ft | 351 kts | 230° |
| 2026-05-05 15:38 | 25.17737 | 121.18022 | 13240 ft | 348 kts | 230° |
| 2026-05-05 15:38 | 25.16159 | 121.16018 | 12640 ft | 345 kts | 230° |
| 2026-05-05 15:38 | 25.14592 | 121.14025 | 12038 ft | 343 kts | 231° |
| 2026-05-05 15:39 | 25.13038 | 121.12047 | 11437 ft | 340 kts | 231° |
| 2026-05-05 15:39 | 25.11497 | 121.10088 | 10988 ft | 333 kts | 230° |
| 2026-05-05 15:39 | 25.10008 | 121.08201 | 10870 ft | 319 kts | 230° |
| 2026-05-05 15:39 | 25.08577 | 121.06387 | 10743 ft | 307 kts | 230° |
| 2026-05-05 15:40 | 25.07205 | 121.04646 | 10615 ft | 295 kts | 230° |
| 2026-05-05 15:40 | 25.05879 | 121.02964 | 10490 ft | 286 kts | 230° |
| 2026-05-05 15:40 | 25.04589 | 121.01331 | 10277 ft | 280 kts | 230° |
| 2026-05-05 15:40 | 25.03319 | 120.99723 | 10032 ft | 277 kts | 230° |
| 2026-05-05 15:41 | 25.02056 | 120.98121 | 9867 ft | 277 kts | 230° |
| 2026-05-05 15:41 | 25.00787 | 120.96512 | 9755 ft | 278 kts | 230° |
| 2026-05-05 15:41 | 24.99516 | 120.94902 | 9629 ft | 278 kts | 230° |
| 2026-05-05 15:41 | 24.98241 | 120.93286 | 9289 ft | 282 kts | 230° |
| 2026-05-05 15:42 | 24.96899 | 120.91710 | 8894 ft | 282 kts | 218° |
| 2026-05-05 15:42 | 24.95118 | 120.90852 | 8525 ft | 284 kts | 188° |
| 2026-05-05 15:42 | 24.93170 | 120.91145 | 8173 ft | 288 kts | 157° |
| 2026-05-05 15:42 | 24.91635 | 120.92536 | 7827 ft | 291 kts | 125° |
| 2026-05-05 15:43 | 24.90989 | 120.94602 | 7492 ft | 294 kts | 93° |
| 2026-05-05 15:43 | 24.91435 | 120.96774 | 7154 ft | 295 kts | 60° |
| 2026-05-05 15:43 | 24.92699 | 120.98559 | 6710 ft | 299 kts | 50° |
| 2026-05-05 15:43 | 24.93943 | 121.00460 | 5894 ft | 314 kts | 60° |
| 2026-05-05 15:44 | 24.94826 | 121.02702 | 5033 ft | 325 kts | 76° |
| 2026-05-05 15:44 | 24.95318 | 121.05128 | 4170 ft | 323 kts | 76° |
| 2026-05-05 15:44 | 24.96188 | 121.07380 | 3412 ft | 317 kts | 58° |
| 2026-05-05 15:44 | 24.97534 | 121.09222 | 2976 ft | 300 kts | 50° |
| 2026-05-05 15:45 | 24.98871 | 121.10912 | 2583 ft | 285 kts | 50° |
| 2026-05-05 15:45 | 25.00140 | 121.12523 | 2214 ft | 271 kts | 50° |
| 2026-05-05 15:45 | 25.01341 | 121.14047 | 1862 ft | 254 kts | 50° |
| 2026-05-05 15:45 | 25.02441 | 121.15442 | 1543 ft | 229 kts | 50° |
| 2026-05-05 15:46 | 25.03440 | 121.16709 | 1273 ft | 209 kts | 49° |
| 2026-05-05 15:46 | 25.04313 | 121.17821 | 1093 ft | 174 kts | 50° |
| 2026-05-05 15:46 | 25.05077 | 121.18763 | 897 ft | 158 kts | 47° |
| 2026-05-05 15:46 | 25.05777 | 121.19654 | 616 ft | 151 kts | 50° |
| 2026-05-05 15:47 | 25.06455 | 121.20514 | 413 ft | 148 kts | 50° |
| 2026-05-05 15:47 | 25.06894 | 121.21088 | 266 ft | 147 kts | 49° |
| 2026-05-05 15:47 | 25.07778 | 121.22212 | 111 ft | 138 kts | 49° |
| 2026-05-05 15:47 | 25.08322 | 121.22910 | 100 ft | 96 kts | 50° |
| 2026-05-05 15:48 | 25.08610 | 121.23277 | 102 ft | 37 kts | 48° |
| 2026-05-05 15:48 | 25.08696 | 121.23446 | 102 ft | 23 kts | 77° |
| 2026-05-05 15:48 | 25.08725 | 121.23604 | 100 ft | 15 kts | 79° |
| 2026-05-05 15:48 | 25.08729 | 121.23630 | 100 ft | 0 kts | 81° |
| 2026-05-05 15:49 | 25.08729 | 121.23631 | 100 ft | 1 kts | 81° |
| 2026-05-05 15:49 | 25.08698 | 121.23668 | 100 ft | 13 kts | 162° |
| 2026-05-05 15:49 | 25.08620 | 121.23613 | 101 ft | 15 kts | 229° |
| 2026-05-05 15:49 | 25.08549 | 121.23522 | 101 ft | 17 kts | 229° |
| 2026-05-05 15:50 | 25.08469 | 121.23419 | 101 ft | 18 kts | 229° |
| 2026-05-05 15:50 | 25.08381 | 121.23309 | 101 ft | 20 kts | 228° |
| 2026-05-05 15:50 | 25.08287 | 121.23188 | 101 ft | 22 kts | 231° |
| 2026-05-05 15:50 | 25.08194 | 121.23133 | 101 ft | 15 kts | 140° |
| 2026-05-05 15:51 | 25.08133 | 121.23223 | 101 ft | 13 kts | 134° |
| 2026-05-05 15:51 | 25.08078 | 121.23276 | 101 ft | 2 kts | 138° |
| 2026-05-05 15:51 | 25.08075 | 121.23279 | 100 ft | 0 kts | 138° |